METAR Formatted Surface Weather Observation
Issued by NWS

Home | Current Version | Previous Version | Text Only | Print | Product List | Glossary On
Versions: 1 2 3 4 5 6 7
000
SAUS41 KPHI 211604
MTRNEL
METAR KNEL 211600Z AUTO 00000KT 10SM OVC012 24/20 A2980 RMK AO2
SLP088 T02440200



USA.gov is the U.S. government's official web portal to all federal, state and local government web resources and services.